Time;durP1;ratioP1;P1;durP2;ratioP2;P2;SDS_P1;SDS_P2;PMS_P1;PMS_P2;Temp;Humidity;BMP_temperature;BMP_pressure;BME280_temperature;BME280_humidity;BME280_pressure;Samples;Min_cycle;Max_cycle;Signal;HPM_P1;HPM_P2
2023/12/04 00:00:25;;;;;;;0.20;0.10;;;;;;;-0.12;93.07;100476.97;5034442;28;20443;-49
2023/12/04 00:02:51;;;;;;;0.20;0.10;;;;;;;-0.09;92.88;100474.41;5034365;28;20458;-50
2023/12/04 00:05:17;;;;;;;0.20;0.10;;;;;;;-0.24;92.98;100472.41;5033536;28;20565;-53
2023/12/04 00:07:44;;;;;;;0.20;0.10;;;;;;;-0.22;93.27;100475.03;5025247;28;20543;-54
2023/12/04 00:10:11;;;;;;;0.20;0.10;;;;;;;-0.09;93.29;100480.50;5027137;28;20895;-53
2023/12/04 00:12:37;;;;;;;0.20;0.10;;;;;;;-0.26;92.78;100470.63;5018808;28;20481;-53
2023/12/04 00:15:04;;;;;;;0.20;0.10;;;;;;;-0.32;92.20;100468.75;5026885;28;20494;-54
2023/12/04 00:17:31;;;;;;;0.20;0.10;;;;;;;-0.20;92.28;100458.53;5023292;28;20531;-53
2023/12/04 00:19:57;;;;;;;0.20;0.10;;;;;;;-0.41;93.05;100464.25;5033488;28;20479;-53
2023/12/04 00:22:24;;;;;;;0.20;0.10;;;;;;;-0.37;92.51;100452.13;5033460;28;20531;-53
2023/12/04 00:24:51;;;;;;;0.20;0.10;;;;;;;-0.51;93.82;100443.19;5033321;28;20456;-54
2023/12/04 00:27:17;;;;;;;0.30;0.20;;;;;;;-0.63;94.08;100433.38;5033898;28;20955;-54
2023/12/04 00:29:44;;;;;;;0.20;0.10;;;;;;;-0.80;94.33;100430.47;5033709;28;20487;-53
2023/12/04 00:32:10;;;;;;;0.20;0.10;;;;;;;-0.92;94.85;100420.66;5035172;28;20543;-53
2023/12/04 00:34:36;;;;;;;0.20;0.10;;;;;;;-0.86;94.92;100422.50;5035444;28;20534;-53
2023/12/04 00:37:03;;;;;;;0.20;0.10;;;;;;;-0.90;95.02;100411.13;5035639;28;20494;-53
2023/12/04 00:39:30;;;;;;;0.20;0.17;;;;;;;-0.96;94.85;100408.41;5034305;28;20455;-53
2023/12/04 00:41:56;;;;;;;0.20;0.10;;;;;;;-1.15;95.60;100406.28;5034812;28;20889;-53
2023/12/04 00:44:23;;;;;;;0.20;0.10;;;;;;;-1.02;95.98;100410.88;5030438;28;20941;-53
2023/12/04 00:46:50;;;;;;;0.20;0.10;;;;;;;-1.06;95.79;100413.41;5024731;28;20650;-53
2023/12/04 00:49:17;;;;;;;0.20;0.10;;;;;;;-1.11;95.56;100407.19;5020540;28;20447;-53
2023/12/04 00:51:43;;;;;;;0.20;0.10;;;;;;;-0.85;95.72;100412.94;5034362;28;20448;-53
2023/12/04 00:54:11;;;;;;;0.20;0.10;;;;;;;-0.98;95.27;100409.22;5057911;28;20998;-54
2023/12/04 00:56:39;;;;;;;0.20;0.10;;;;;;;-0.96;94.92;100410.13;5033549;28;20976;-56
2023/12/04 00:59:08;;;;;;;0.20;0.10;;;;;;;-0.98;95.11;100402.25;5033755;28;20507;-54
2023/12/04 01:01:36;;;;;;;0.20;0.10;;;;;;;-0.96;95.01;100403.19;5034015;28;20488;-54
2023/12/04 01:04:03;;;;;;;0.20;0.10;;;;;;;-1.03;95.44;100401.31;5034050;28;20452;-54
2023/12/04 01:06:29;;;;;;;0.20;0.10;;;;;;;-1.04;95.59;100398.66;5035207;28;20594;-53
2023/12/04 01:08:56;;;;;;;0.20;0.10;;;;;;;-1.16;95.95;100388.88;5034381;28;20491;-53
2023/12/04 01:11:23;;;;;;;0.20;0.10;;;;;;;-0.95;95.60;100386.69;5034083;28;20464;-54
2023/12/04 01:13:49;;;;;;;0.20;0.10;;;;;;;-1.08;95.63;100389.03;5019860;28;21072;-53
2023/12/04 01:16:17;;;;;;;0.20;0.10;;;;;;;-0.99;96.18;100392.69;5021613;28;20477;-53
2023/12/04 01:18:43;;;;;;;0.20;0.10;;;;;;;-0.96;95.74;100389.25;5026269;28;20544;-53
2023/12/04 01:21:10;;;;;;;3.80;3.60;;;;;;;-1.02;95.54;100395.22;5023791;28;20480;-53
2023/12/04 01:23:37;;;;;;;0.20;0.10;;;;;;;-1.14;95.54;100394.97;5032958;28;20546;-53
2023/12/04 01:26:04;;;;;;;0.20;0.10;;;;;;;-1.15;96.11;100389.75;5032704;28;20562;-54
2023/12/04 01:28:31;;;;;;;0.20;0.10;;;;;;;-1.27;96.68;100392.97;5032980;28;20531;-54
2023/12/04 01:30:57;;;;;;;0.20;0.10;;;;;;;-1.17;96.12;100391.44;5033120;28;20543;-54
2023/12/04 01:33:24;;;;;;;0.20;0.10;;;;;;;-1.23;95.50;100392.22;5026966;28;20944;-53
2023/12/04 01:35:50;;;;;;;0.20;0.10;;;;;;;-1.18;96.13;100394.91;5025157;28;20467;-53
2023/12/04 01:38:17;;;;;;;0.30;0.10;;;;;;;-1.23;96.27;100389.59;5032730;28;20476;-53
2023/12/04 01:40:43;;;;;;;0.20;0.10;;;;;;;-1.26;96.47;100394.72;5033141;28;20543;-53
2023/12/04 01:43:10;;;;;;;0.20;0.10;;;;;;;-1.25;96.45;100388.66;5032960;28;20551;-53
2023/12/04 01:45:36;;;;;;;0.20;0.10;;;;;;;-1.32;96.78;100385.06;5020264;28;20503;-53
2023/12/04 01:48:05;;;;;;;0.20;0.10;;;;;;;-1.29;97.32;100379.03;5026123;28;20461;-53
2023/12/04 01:50:34;;;;;;;0.20;0.10;;;;;;;-1.28;96.72;100380.78;5025715;28;20979;-53
2023/12/04 01:53:01;;;;;;;0.20;0.10;;;;;;;-1.38;97.12;100376.22;5014598;28;20543;-54
2023/12/04 01:55:29;;;;;;;0.20;0.10;;;;;;;-1.44;97.17;100373.50;5032566;28;20495;-53
2023/12/04 01:57:58;;;;;;;0.20;0.10;;;;;;;-1.51;97.40;100369.88;5032426;28;20447;-54
2023/12/04 02:00:25;;;;;;;0.20;0.10;;;;;;;-1.58;97.70;100362.78;5032182;28;20857;-53
2023/12/04 02:02:52;;;;;;;0.20;0.10;;;;;;;-1.52;97.57;100363.78;5033678;28;20543;-53
2023/12/04 02:05:19;;;;;;;0.20;0.10;;;;;;;-1.60;97.77;100356.69;5032974;28;21044;-54
2023/12/04 02:07:46;;;;;;;1.07;1.07;;;;;;;-1.64;98.24;100360.06;5024717;28;20492;-53
2023/12/04 02:10:12;;;;;;;0.20;0.10;;;;;;;-1.57;98.15;100359.34;5028726;28;20475;-53
2023/12/04 02:12:39;;;;;;;0.20;0.10;;;;;;;-1.64;97.62;100354.84;5025556;28;20946;-53
2023/12/04 02:15:06;;;;;;;0.20;0.10;;;;;;;-1.70;98.12;100352.09;5046064;23;20486;-57
2023/12/04 02:17:33;;;;;;;0.20;0.10;;;;;;;-1.61;98.32;100354.91;5011734;28;20511;-57
2023/12/04 02:19:59;;;;;;;0.20;0.10;;;;;;;-1.62;98.38;100351.44;5017677;28;20459;-57
2023/12/04 02:22:26;;;;;;;0.20;0.10;;;;;;;-1.43;97.70;100349.19;5015622;28;20452;-57
2023/12/04 02:24:52;;;;;;;0.20;0.10;;;;;;;-1.42;97.05;100340.53;5015205;28;20449;-58
2023/12/04 02:27:28;;;;;;;0.20;0.10;;;;;;;-1.66;97.64;100339.16;5010039;28;20542;-57
2023/12/04 02:30:07;;;;;;;0.20;0.10;;;;;;;-1.57;97.67;100339.38;5003454;28;21011;-56
2023/12/04 02:32:38;;;;;;;0.20;0.10;;;;;;;-1.55;97.27;100321.16;5015475;28;20451;-57
2023/12/04 02:35:06;;;;;;;0.30;0.10;;;;;;;-1.54;97.52;100320.31;5015356;28;20444;-58
2023/12/04 02:37:33;;;;;;;0.20;0.10;;;;;;;-1.39;97.31;100318.00;5015386;28;20527;-57
2023/12/04 02:40:00;;;;;;;0.20;0.10;;;;;;;-1.51;96.89;100316.06;5015206;28;20464;-57
2023/12/04 02:42:27;;;;;;;0.20;0.10;;;;;;;-1.50;97.52;100311.72;5015364;28;20488;-57
2023/12/04 02:44:54;;;;;;;1.43;1.43;;;;;;;-1.44;97.44;100305.75;5014632;28;20453;-57
2023/12/04 02:47:20;;;;;;;0.63;0.63;;;;;;;-1.36;97.17;100292.03;5014611;28;20498;-58
2023/12/04 02:49:46;;;;;;;0.20;0.10;;;;;;;-1.43;96.95;100284.91;5014844;28;20456;-57
2023/12/04 02:52:13;;;;;;;0.20;0.10;;;;;;;-1.50;96.65;100283.94;5014937;28;20945;-57
2023/12/04 02:54:39;;;;;;;0.20;0.10;;;;;;;-1.28;97.04;100277.38;5014590;28;20459;-58
2023/12/04 02:57:06;;;;;;;0.20;0.20;;;;;;;-1.17;96.54;100281.94;5014711;28;20522;-57
2023/12/04 02:59:32;;;;;;;0.20;0.10;;;;;;;-0.98;95.42;100277.06;5022785;28;20457;-57
2023/12/04 03:01:59;;;;;;;0.20;0.10;;;;;;;-0.90;94.74;100272.88;5009065;28;20487;-58
2023/12/04 03:04:29;;;;;;;0.20;0.10;;;;;;;-0.92;94.95;100271.97;5014754;28;20456;-57
2023/12/04 03:06:56;;;;;;;0.20;0.10;;;;;;;-0.99;94.92;100271.81;5014082;28;20492;-58
2023/12/04 03:09:23;;;;;;;0.20;0.10;;;;;;;-0.82;94.98;100277.31;5014787;28;20452;-57
2023/12/04 03:12:09;;;;;;;0.63;0.63;;;;;;;-1.19;95.50;100266.25;5009993;28;20983;-58
2023/12/04 03:14:36;;;;;;;0.20;0.10;;;;;;;-0.90;94.77;100264.16;5005702;28;20960;-57
2023/12/04 03:17:03;;;;;;;0.20;0.10;;;;;;;-1.34;95.52;100253.81;5001033;28;20472;-57
2023/12/04 03:19:29;;;;;;;0.20;0.10;;;;;;;-1.27;96.21;100252.19;5014053;28;20915;-58
2023/12/04 03:21:56;;;;;;;0.20;0.10;;;;;;;-1.36;96.32;100241.63;5014559;28;20860;-57
2023/12/04 03:24:22;;;;;;;0.20;0.10;;;;;;;-1.33;96.76;100237.31;5014512;28;20449;-57
2023/12/04 03:26:49;;;;;;;0.20;0.10;;;;;;;-1.44;96.26;100240.59;5013674;28;20609;-58
2023/12/04 03:29:15;;;;;;;0.20;0.10;;;;;;;-1.38;97.45;100243.28;5014321;28;20811;-58
2023/12/04 03:31:41;;;;;;;0.20;0.10;;;;;;;-1.25;96.76;100232.25;5008645;28;20553;-58
2023/12/04 03:34:08;;;;;;;0.20;0.10;;;;;;;-1.24;95.93;100239.19;5006035;28;20449;-58
2023/12/04 03:36:34;;;;;;;0.20;0.10;;;;;;;-1.26;95.99;100233.97;5014037;28;20523;-58
2023/12/04 03:39:01;;;;;;;0.20;0.10;;;;;;;-1.32;95.71;100240.81;5014181;28;20457;-57
2023/12/04 03:41:27;;;;;;;0.20;0.10;;;;;;;-1.29;96.04;100228.72;5014043;28;20448;-57
2023/12/04 03:43:54;;;;;;;0.20;0.10;;;;;;;-1.42;96.18;100233.66;5013633;28;20550;-56
2023/12/04 03:46:20;;;;;;;0.20;0.10;;;;;;;-1.41;97.05;100238.91;4996438;28;20492;-57
2023/12/04 03:48:47;;;;;;;0.20;0.10;;;;;;;-1.32;96.80;100246.03;5006363;28;20511;-57
2023/12/04 03:51:14;;;;;;;0.20;0.10;;;;;;;-1.20;95.82;100254.06;5013630;28;20515;-58
2023/12/04 03:53:40;;;;;;;0.20;0.10;;;;;;;-1.20;94.72;100252.34;5012488;28;20456;-58
2023/12/04 03:56:08;;;;;;;0.20;0.10;;;;;;;-1.29;94.41;100254.78;5007375;28;21053;-57
2023/12/04 03:58:34;;;;;;;0.20;0.10;;;;;;;-1.34;93.97;100260.78;5006922;28;20510;-57
2023/12/04 04:01:01;;;;;;;0.20;0.10;;;;;;;-1.27;94.11;100257.41;5013331;28;20907;-57
2023/12/04 04:03:27;;;;;;;0.20;0.10;;;;;;;-1.27;94.04;100260.88;5005498;28;20448;-56
2023/12/04 04:05:54;;;;;;;0.20;0.10;;;;;;;-1.18;94.90;100252.38;5013508;28;20495;-57
2023/12/04 04:08:20;;;;;;;0.20;0.10;;;;;;;-1.24;94.79;100260.94;5003302;28;20604;-57
2023/12/04 04:10:47;;;;;;;0.40;0.40;;;;;;;-1.28;93.76;100255.66;5015646;28;20529;-57
2023/12/04 04:13:13;;;;;;;0.20;0.10;;;;;;;-1.31;94.74;100248.66;5011370;28;20984;-57
2023/12/04 04:15:40;;;;;;;0.20;0.10;;;;;;;-1.24;93.68;100240.09;5006308;28;20487;-57
2023/12/04 04:18:07;;;;;;;0.20;0.10;;;;;;;-1.33;94.92;100229.50;5007712;28;20818;-57
2023/12/04 04:20:33;;;;;;;0.20;0.10;;;;;;;-1.51;95.05;100229.16;5013551;28;20453;-56
2023/12/04 04:23:00;;;;;;;0.20;0.10;;;;;;;-1.52;96.38;100217.84;5014229;28;20539;-57
2023/12/04 04:25:26;;;;;;;0.20;0.10;;;;;;;-1.07;95.47;100213.44;5011734;28;20477;-57
2023/12/04 04:27:53;;;;;;;0.20;0.10;;;;;;;-1.29;94.78;100223.50;5013723;28;20579;-57
2023/12/04 04:30:19;;;;;;;0.20;0.10;;;;;;;-1.20;94.57;100218.44;5013008;28;20507;-57
2023/12/04 04:32:46;;;;;;;0.20;0.20;;;;;;;-1.16;94.35;100227.19;5013098;28;20463;-56
2023/12/04 04:35:13;;;;;;;0.20;0.10;;;;;;;-1.31;94.79;100229.53;5013032;28;20468;-56
2023/12/04 04:37:39;;;;;;;0.20;0.10;;;;;;;-1.30;94.54;100231.28;5012914;28;20524;-57
2023/12/04 04:40:10;;;;;;;3.33;3.03;;;;;;;-1.26;94.26;100230.47;5012895;28;20921;-57
2023/12/04 04:42:36;;;;;;;0.20;0.10;;;;;;;-1.20;94.05;100231.50;5012259;28;20519;-57
2023/12/04 04:45:03;;;;;;;0.20;0.10;;;;;;;-1.25;94.18;100222.69;5003295;28;20456;-56
2023/12/04 04:47:30;;;;;;;0.20;0.10;;;;;;;-1.22;94.34;100209.72;5008994;28;20539;-57
2023/12/04 04:49:57;;;;;;;0.20;0.10;;;;;;;-1.30;94.00;100215.66;5012615;28;20526;-57
2023/12/04 04:52:23;;;;;;;0.20;0.10;;;;;;;-1.28;94.51;100216.53;5012633;28;20448;-57
2023/12/04 04:54:50;;;;;;;0.20;0.10;;;;;;;-1.35;95.15;100212.09;5027654;28;20452;-57
2023/12/04 04:57:16;;;;;;;0.20;0.10;;;;;;;-1.37;94.31;100201.63;4999191;28;20456;-56
2023/12/04 04:59:43;;;;;;;0.20;0.10;;;;;;;-1.49;94.77;100204.03;5013024;28;20452;-57
2023/12/04 05:02:09;;;;;;;0.20;0.10;;;;;;;-1.54;95.28;100203.91;5012953;28;20457;-57
2023/12/04 05:04:36;;;;;;;0.20;0.10;;;;;;;-1.51;94.76;100195.28;5012855;28;20554;-56
2023/12/04 05:07:02;;;;;;;0.20;0.10;;;;;;;-1.44;94.73;100191.06;5009600;28;20862;-56
2023/12/04 05:09:29;;;;;;;0.20;0.10;;;;;;;-1.42;94.03;100182.41;5002369;28;20449;-57
2023/12/04 05:11:56;;;;;;;0.20;0.10;;;;;;;-1.36;94.04;100186.88;5009100;28;20466;-57
2023/12/04 05:14:23;;;;;;;0.20;0.10;;;;;;;-1.47;94.41;100178.84;5002789;28;20532;-57
2023/12/04 05:16:49;;;;;;;0.20;0.10;;;;;;;-1.25;94.21;100174.88;4998949;28;20898;-57
2023/12/04 05:19:16;;;;;;;0.20;0.10;;;;;;;-1.21;93.58;100184.53;5027476;28;20459;-56
2023/12/04 05:21:42;;;;;;;0.20;0.10;;;;;;;-1.20;93.55;100175.84;5012200;28;20498;-56
2023/12/04 05:24:09;;;;;;;0.20;0.10;;;;;;;-1.17;92.99;100175.03;5012348;28;20452;-57
2023/12/04 05:26:35;;;;;;;0.20;0.10;;;;;;;-1.05;93.12;100170.00;5011860;28;21206;-57
2023/12/04 05:29:02;;;;;;;0.20;0.10;;;;;;;-1.17;92.89;100178.50;5012359;28;20487;-57
2023/12/04 05:31:28;;;;;;;0.20;0.10;;;;;;;-1.23;93.49;100168.00;5012213;28;20463;-57
2023/12/04 05:33:55;;;;;;;0.20;0.10;;;;;;;-1.32;93.58;100166.09;5012215;28;20543;-57
2023/12/04 05:36:21;;;;;;;0.20;0.10;;;;;;;-1.42;93.61;100169.38;5012066;28;20468;-57
2023/12/04 05:38:49;;;;;;;0.20;0.10;;;;;;;-1.58;94.35;100157.81;5012132;28;20459;-57
2023/12/04 05:41:17;;;;;;;0.20;0.10;;;;;;;-1.63;94.73;100156.88;5010580;28;20456;-57
2023/12/04 05:43:44;;;;;;;0.20;0.10;;;;;;;-1.52;94.80;100146.59;5010887;28;20465;-57
2023/12/04 05:46:11;;;;;;;0.20;0.10;;;;;;;-1.43;94.16;100154.59;4998870;28;20506;-57
2023/12/04 05:48:37;;;;;;;0.20;0.10;;;;;;;-1.33;94.26;100150.44;5012321;28;20496;-57
2023/12/04 05:51:04;;;;;;;0.20;0.10;;;;;;;-1.46;94.01;100140.66;5011952;28;20535;-57
2023/12/04 05:53:30;;;;;;;0.20;0.10;;;;;;;-1.75;94.49;100148.81;5012202;28;20444;-57
2023/12/04 05:55:57;;;;;;;0.20;0.10;;;;;;;-1.57;95.17;100135.25;5015780;28;20619;-56
2023/12/04 05:58:23;;;;;;;0.20;0.10;;;;;;;-1.48;93.88;100138.00;5015961;28;20832;-57
2023/12/04 06:00:50;;;;;;;0.27;0.13;;;;;;;-1.54;94.83;100143.97;5016129;28;20452;-57
2023/12/04 06:03:16;;;;;;;0.20;0.10;;;;;;;-1.49;95.01;100136.25;5031431;28;20452;-57
2023/12/04 06:05:43;;;;;;;0.20;0.10;;;;;;;-1.24;94.98;100132.31;5015731;28;20562;-57
2023/12/04 06:08:10;;;;;;;0.20;0.10;;;;;;;-1.20;94.19;100135.00;5003815;28;20543;-57
2023/12/04 06:10:36;;;;;;;0.20;0.10;;;;;;;-1.06;93.42;100137.84;5029312;28;20456;-58
2023/12/04 06:13:03;;;;;;;0.20;0.10;;;;;;;-1.03;93.22;100143.09;5004129;28;20491;-57
2023/12/04 06:15:29;;;;;;;0.20;0.10;;;;;;;-1.02;93.21;100146.56;5009005;28;20476;-55
2023/12/04 06:17:56;;;;;;;1.37;1.27;;;;;;;-0.98;92.94;100140.53;5007896;28;20482;-55
2023/12/04 06:20:22;;;;;;;0.20;0.10;;;;;;;-1.02;92.87;100120.50;5015395;28;20455;-55
2023/12/04 06:22:49;;;;;;;0.20;0.10;;;;;;;-1.30;93.06;100120.06;5030848;28;20458;-55
2023/12/04 06:25:16;;;;;;;0.20;0.10;;;;;;;-1.49;93.84;100105.00;5015461;28;20822;-54
2023/12/04 06:27:42;;;;;;;0.37;0.37;;;;;;;-1.39;93.97;100106.88;5015491;28;20837;-55
2023/12/04 06:30:09;;;;;;;0.20;0.20;;;;;;;-1.28;94.09;100100.09;5015424;28;20449;-54
2023/12/04 06:32:36;;;;;;;0.30;0.20;;;;;;;-1.24;93.29;100101.91;5015537;28;20456;-55
2023/12/04 06:35:03;;;;;;;0.20;0.10;;;;;;;-1.25;93.49;100099.28;5015290;28;20523;-55
2023/12/04 06:37:30;;;;;;;0.20;0.10;;;;;;;-1.34;93.34;100097.41;5015124;28;20835;-55
2023/12/04 06:40:00;;;;;;;0.20;0.10;;;;;;;-1.32;93.90;100097.44;5015411;28;20460;-55
2023/12/04 06:42:27;;;;;;;0.20;0.10;;;;;;;-1.34;93.56;100089.59;5015670;28;20524;-55
2023/12/04 06:44:54;;;;;;;0.20;0.10;;;;;;;-1.44;93.62;100089.41;5009760;28;20453;-54
2023/12/04 06:47:23;;;;;;;0.20;0.10;;;;;;;-1.45;93.99;100083.31;5014918;28;20494;-55
2023/12/04 06:49:50;;;;;;;0.20;0.10;;;;;;;-1.70;94.14;100073.34;5015046;28;20456;-55
2023/12/04 06:52:16;;;;;;;0.20;0.10;;;;;;;-1.69;95.30;100065.56;5029963;28;20457;-54
2023/12/04 06:54:42;;;;;;;0.20;0.10;;;;;;;-1.82;95.00;100053.16;5014796;28;20452;-55
2023/12/04 06:57:09;;;;;;;0.20;0.10;;;;;;;-1.71;95.57;100059.44;5014824;28;20491;-55
2023/12/04 06:59:35;;;;;;;0.20;0.10;;;;;;;-1.70;95.89;100049.91;5014939;28;20458;-54
2023/12/04 07:02:03;;;;;;;0.20;0.10;;;;;;;-1.70;95.44;100047.28;5014523;28;20459;-55
2023/12/04 07:04:29;;;;;;;0.20;0.10;;;;;;;-1.81;95.29;100034.97;5014098;28;20459;-55
2023/12/04 07:06:57;;;;;;;0.20;0.10;;;;;;;-1.77;95.53;100043.72;5012550;28;20473;-55
2023/12/04 07:09:24;;;;;;;0.20;0.10;;;;;;;-1.56;95.62;100045.78;5003986;28;20456;-54
2023/12/04 07:11:51;;;;;;;0.20;0.10;;;;;;;-1.70;94.72;100049.91;5011913;28;20500;-54
2023/12/04 07:14:17;;;;;;;0.20;0.10;;;;;;;-1.61;94.63;100053.53;5004019;28;20539;-54
2023/12/04 07:16:44;;;;;;;0.20;0.10;;;;;;;-1.75;94.62;100048.94;5001001;28;20509;-54
2023/12/04 07:19:10;;;;;;;0.20;0.10;;;;;;;-1.67;94.39;100037.78;5014419;28;20479;-54
2023/12/04 07:21:38;;;;;;;0.20;0.10;;;;;;;-1.42;93.98;100038.19;5014235;28;20942;-54
2023/12/04 07:24:05;;;;;;;0.20;0.10;;;;;;;-1.57;93.80;100044.03;5014368;28;20448;-55
2023/12/04 07:26:33;;;;;;;0.20;0.10;;;;;;;-1.43;93.80;100034.69;5014173;28;20862;-55
2023/12/04 07:29:00;;;;;;;0.20;0.10;;;;;;;-1.58;93.71;100042.28;5013890;28;20904;-54
2023/12/04 07:31:27;;;;;;;0.20;0.10;;;;;;;-1.42;93.77;100039.06;5014209;28;20453;-54
2023/12/04 07:33:54;;;;;;;0.20;0.10;;;;;;;-1.28;93.14;100044.47;5014182;28;20833;-53
2023/12/04 07:36:21;;;;;;;0.20;0.10;;;;;;;-1.31;92.72;100047.94;5014196;28;20469;-53
2023/12/04 07:38:49;;;;;;;1.50;1.40;;;;;;;-1.21;92.81;100047.22;5014070;28;20449;-53
2023/12/04 07:41:17;;;;;;;0.40;0.20;;;;;;;-1.37;92.96;100040.03;5014336;28;20452;-54
2023/12/04 07:43:43;;;;;;;0.20;0.10;;;;;;;-1.37;92.94;100044.34;5013929;28;20812;-53
2023/12/04 07:46:11;;;;;;;0.20;0.10;;;;;;;-1.29;92.87;100041.00;5000584;28;20468;-53
2023/12/04 07:48:37;;;;;;;0.20;0.10;;;;;;;-1.20;92.62;100038.53;5013833;28;20997;-53
2023/12/04 07:51:04;;;;;;;0.20;0.10;;;;;;;-1.15;92.59;100041.19;5013891;28;20452;-54
2023/12/04 07:53:31;;;;;;;0.20;0.10;;;;;;;-1.34;92.35;100042.69;5013938;28;20449;-53
2023/12/04 07:56:03;;;;;;;0.20;0.10;;;;;;;-1.31;92.99;100036.63;5028751;28;20775;-53
2023/12/04 07:58:30;;;;;;;0.20;0.10;;;;;;;-1.33;93.29;100041.81;5013869;28;20452;-53
2023/12/04 08:00:58;;;;;;;0.20;0.10;;;;;;;-1.26;93.10;100038.44;5013469;28;20888;-54
2023/12/04 08:03:24;;;;;;;0.20;0.10;;;;;;;-1.26;92.42;100027.13;5013928;28;20539;-53
2023/12/04 08:05:51;;;;;;;0.20;0.10;;;;;;;-1.22;92.81;100023.75;5013784;28;20476;-54
2023/12/04 08:08:18;;;;;;;0.20;0.10;;;;;;;-1.16;93.17;100017.72;5000645;28;20489;-54
2023/12/04 08:10:45;;;;;;;0.20;0.10;;;;;;;-1.13;92.50;100016.03;5013247;28;20463;-53
2023/12/04 08:13:11;;;;;;;0.20;0.10;;;;;;;-1.21;92.47;100020.28;5000094;28;20528;-54
2023/12/04 08:15:38;;;;;;;0.20;0.10;;;;;;;-1.10;92.07;100010.84;5007059;28;20998;-52
2023/12/04 08:18:04;;;;;;;0.20;0.10;;;;;;;-1.05;92.89;100006.59;5006341;28;20488;-53
2023/12/04 08:20:31;;;;;;;0.20;0.10;;;;;;;-1.02;92.51;100008.34;5013265;28;20461;-52
2023/12/04 08:23:06;;;;;;;0.20;0.10;;;;;;;-1.05;92.23;100001.38;5013340;28;20448;-52
2023/12/04 08:25:32;;;;;;;0.20;0.10;;;;;;;-1.01;92.18;100000.53;5013185;28;20584;-53
2023/12/04 08:27:59;;;;;;;0.20;0.10;;;;;;;-0.96;92.15;99997.97;5012933;28;20575;-52
2023/12/04 08:30:27;;;;;;;0.27;0.17;;;;;;;-1.00;92.30;99994.47;5013437;28;20479;-53
2023/12/04 08:32:54;;;;;;;0.20;0.10;;;;;;;-0.92;92.58;99994.59;5012875;28;20887;-52
2023/12/04 08:35:21;;;;;;;0.20;0.10;;;;;;;-0.81;92.05;99999.94;5013087;28;20507;-52
2023/12/04 08:37:48;;;;;;;0.20;0.10;;;;;;;-0.83;91.90;99994.69;5012740;28;20531;-52
2023/12/04 08:40:15;;;;;;;0.20;0.10;;;;;;;-0.71;91.83;99991.34;5012928;28;20452;-51
2023/12/04 08:42:44;;;;;;;0.20;0.10;;;;;;;-0.83;91.66;99976.41;5012703;28;20511;-52
2023/12/04 08:45:11;;;;;;;0.20;0.10;;;;;;;-1.06;91.95;99978.75;5003532;28;20474;-51
2023/12/04 08:47:37;;;;;;;0.20;0.10;;;;;;;-0.96;92.63;99977.13;5009043;28;20492;-53
2023/12/04 08:50:04;;;;;;;0.20;0.10;;;;;;;-0.82;92.39;99979.91;5028053;28;20456;-52
2023/12/04 08:52:31;;;;;;;0.20;0.10;;;;;;;-0.79;91.78;99977.34;5012437;28;20456;-53
2023/12/04 08:54:58;;;;;;;0.20;0.10;;;;;;;-0.82;92.34;99979.91;5012411;28;20476;-52
2023/12/04 08:57:24;;;;;;;0.20;0.10;;;;;;;-0.64;91.98;99986.22;5012655;28;20456;-53
2023/12/04 08:59:51;;;;;;;0.20;0.10;;;;;;;-0.60;92.22;99985.41;5012694;28;20958;-52
2023/12/04 09:02:17;;;;;;;0.20;0.10;;;;;;;-0.65;91.70;99988.81;5012557;28;20507;-52
2023/12/04 09:04:44;;;;;;;0.20;0.10;;;;;;;-0.82;91.92;99980.81;5012487;28;20540;-52
2023/12/04 09:07:11;;;;;;;0.20;0.10;;;;;;;-0.68;91.54;99978.34;5012328;28;20465;-52
2023/12/04 09:09:58;;;;;;;0.20;0.20;;;;;;;-0.63;90.57;99974.94;5012772;28;20930;-54
2023/12/04 09:12:26;;;;;;;0.30;0.10;;;;;;;-0.56;90.88;99982.81;5005791;28;20468;-53
2023/12/04 09:14:52;;;;;;;0.20;0.10;;;;;;;-0.64;90.83;99973.19;5005517;28;20456;-53
2023/12/04 09:17:20;;;;;;;0.20;0.10;;;;;;;-0.58;90.54;99987.16;4999768;28;20535;-53
2023/12/04 09:19:48;;;;;;;0.20;0.10;;;;;;;-0.47;90.78;99981.19;5012185;28;20547;-53
2023/12/04 09:22:15;;;;;;;0.20;0.10;;;;;;;-0.57;90.81;99979.31;5012520;28;20495;-53
2023/12/04 09:24:46;;;;;;;0.90;0.87;;;;;;;-0.41;90.23;99977.75;5012329;28;20942;-53
2023/12/04 09:27:13;;;;;;;0.20;0.10;;;;;;;-0.52;89.99;99985.50;5012179;28;20473;-53
2023/12/04 09:29:41;;;;;;;0.20;0.10;;;;;;;-0.39;88.99;99987.38;5012215;28;20501;-53
2023/12/04 09:32:08;;;;;;;0.20;0.10;;;;;;;-0.30;89.42;99990.06;5012281;28;20506;-53
2023/12/04 09:34:34;;;;;;;0.20;0.10;;;;;;;-0.23;89.40;99992.75;5012081;28;20457;-53
2023/12/04 09:37:00;;;;;;;0.20;0.10;;;;;;;-0.31;89.01;99975.25;5012375;28;20475;-52
2023/12/04 09:39:36;;;;;;;0.20;0.10;;;;;;;-0.38;89.16;99962.16;5012254;28;20448;-53
2023/12/04 09:42:03;;;;;;;0.20;0.10;;;;;;;-0.48;88.45;99969.00;5011967;28;20949;-52
2023/12/04 09:44:30;;;;;;;0.20;0.10;;;;;;;-0.32;88.32;99967.41;5008182;28;20450;-53
2023/12/04 09:46:59;;;;;;;0.20;0.10;;;;;;;-0.39;89.21;99970.84;5002120;28;20563;-53
2023/12/04 09:49:28;;;;;;;0.20;0.10;;;;;;;-0.28;88.49;99957.88;4997301;28;21030;-53
2023/12/04 09:51:57;;;;;;;0.20;0.10;;;;;;;-0.32;88.71;99962.19;5012141;28;20484;-53
2023/12/04 09:54:24;;;;;;;0.20;0.10;;;;;;;-0.25;88.38;99963.16;5011827;28;20531;-53
2023/12/04 09:56:52;;;;;;;0.20;0.10;;;;;;;-0.32;89.25;99963.06;5011947;28;20855;-54
2023/12/04 09:59:25;;;;;;;0.20;0.10;;;;;;;-0.21;89.05;99972.75;5011839;28;20540;-53
2023/12/04 10:01:52;;;;;;;0.20;0.10;;;;;;;-0.26;88.28;99967.50;5011843;28;20495;-53
2023/12/04 10:04:19;;;;;;;0.20;0.10;;;;;;;-0.13;88.10;99960.66;5011986;28;20448;-53
2023/12/04 10:06:46;;;;;;;0.20;0.10;;;;;;;-0.05;88.09;99956.34;5011269;28;21047;-52
2023/12/04 10:09:13;;;;;;;0.20;0.10;;;;;;;-0.11;87.88;99951.97;4999521;28;20562;-53
2023/12/04 10:11:41;;;;;;;0.20;0.10;;;;;;;-0.14;88.30;99941.47;5010798;28;20468;-52
2023/12/04 10:14:34;;;;;;;0.20;0.10;;;;;;;-0.03;88.77;99949.41;4999922;28;20484;-52
2023/12/04 10:17:14;;;;;;;0.20;0.10;;;;;;;0.28;87.68;99946.19;4996733;28;20523;-53
2023/12/04 10:19:40;;;;;;;0.20;0.10;;;;;;;-0.07;88.29;99937.19;5011773;28;20520;-54
2023/12/04 10:22:11;;;;;;;0.20;0.10;;;;;;;-0.08;88.64;99932.81;5011720;28;20515;-53
2023/12/04 10:24:38;;;;;;;0.20;0.10;;;;;;;-0.12;89.21;99928.44;5011633;28;20448;-53
2023/12/04 10:27:11;;;;;;;0.20;0.10;;;;;;;-0.26;89.85;99914.41;5011587;28;21051;-53
2023/12/04 10:29:47;;;;;;;0.20;0.10;;;;;;;-0.32;90.62;99909.97;5011700;28;20492;-55
2023/12/04 10:32:17;;;;;;;0.20;0.10;;;;;;;-0.17;91.83;99906.63;5011597;28;20452;-53
2023/12/04 10:34:44;;;;;;;0.20;0.10;;;;;;;-0.39;93.66;99901.22;5011508;28;20448;-53
2023/12/04 10:37:11;;;;;;;0.20;0.20;;;;;;;-0.35;94.55;99895.16;5011238;28;20725;-54
2023/12/04 10:39:49;;;;;;;0.20;0.10;;;;;;;-0.42;95.40;99890.72;5012344;28;20480;-54
2023/12/04 10:42:27;;;;;;;0.20;0.10;;;;;;;-0.79;96.42;99879.09;5015285;28;20485;-55
2023/12/04 10:44:58;;;;;;;0.20;0.10;;;;;;;-0.68;97.48;99877.47;5008062;28;20448;-54
2023/12/04 10:47:25;;;;;;;0.20;0.10;;;;;;;-0.71;98.38;99868.72;5009392;28;20540;-53
2023/12/04 10:49:52;;;;;;;0.20;0.10;;;;;;;-0.70;99.02;99873.94;5015059;28;20623;-53
2023/12/04 10:52:19;;;;;;;0.20;0.10;;;;;;;-0.69;99.00;99861.75;5015073;28;20486;-53
2023/12/04 10:54:49;;;;;;;0.20;0.10;;;;;;;-0.62;100.00;99856.63;5015030;28;20448;-53
2023/12/04 10:57:25;;;;;;;0.20;0.10;;;;;;;-0.65;100.00;99859.22;5014930;28;20882;-55
2023/12/04 10:59:56;;;;;;;0.20;0.10;;;;;;;-0.73;100.00;99862.59;5014804;28;20447;-53
2023/12/04 11:02:29;;;;;;;0.20;0.10;;;;;;;-0.80;100.00;99853.84;5014937;28;20455;-54
2023/12/04 11:05:04;;;;;;;0.20;0.10;;;;;;;-0.79;100.00;99839.94;5014774;28;21009;-53
2023/12/04 11:07:32;;;;;;;0.20;0.10;;;;;;;-0.93;100.00;99837.22;5008329;28;20445;-54
2023/12/04 11:10:25;;;;;;;0.20;0.10;;;;;;;-0.87;100.00;99827.69;5010864;28;20782;-53
2023/12/04 11:13:00;;;;;;;0.20;0.10;;;;;;;-0.79;100.00;99815.59;5004745;28;20468;-54
2023/12/04 11:15:29;;;;;;;0.20;0.10;;;;;;;-0.81;100.00;99819.94;5007835;28;20488;-54
2023/12/04 11:18:02;;;;;;;0.20;0.10;;;;;;;-0.71;100.00;99819.13;5006741;28;20456;-53
2023/12/04 11:20:35;;;;;;;0.20;0.10;;;;;;;-0.94;100.00;99803.28;5014552;28;20455;-53
2023/12/04 11:23:03;;;;;;;0.20;0.10;;;;;;;-0.85;100.00;99799.88;5029460;28;21037;-53
2023/12/04 11:25:34;;;;;;;0.20;0.10;;;;;;;-0.91;100.00;99801.56;5014409;28;20564;-55
2023/12/04 11:28:02;;;;;;;0.20;0.10;;;;;;;-0.78;100.00;99797.34;5029627;28;20464;-53